全部
Goondiwindi Hospital Airport (Goodwindi Queensland) YXGO 天气
There is no TAF data available at YXGO or any nearby airports.
There is no METAR data available at YXGO. Showing METAR data for YGDI (2 mi NE).
GOO近期METAR历史数据(YXGO无数据)
| Date | Time (AEST) | Flight Rules | Wind Dir. | Speed | Type | Height AGL (ft) | Visibility | Temp (°C) | Temp (°F) | Dew Point (°C) | Dew Point (°F) | Rel. Humid. | Pressure | Density Altitude | Remarks |
|---|---|---|---|---|---|---|---|---|---|---|---|---|---|---|---|
| 05-五月 | 20:00 | n/a | 200° | 4 kt | Missing | 17° | 62° | 14° | 57° | 82% | 1019 mb | 783 ft | |||
| 05-五月 | 19:00 | n/a | 200° | 6 kt | Missing | 17° | 62° | 14° | 57° | 82% | 1018 mb | 812 ft | |||
| 05-五月 | 18:00 | n/a | 210° | 7 kt | Missing | 17° | 62° | 15° | 59° | 88% | 1018 mb | 812 ft | |||
| 05-五月 | 17:00 | n/a | 230° | 8 kt | Missing | 18° | 64° | 15° | 59° | 83% | 1017 mb | 962 ft | |||
| 05-五月 | 16:00 | n/a | 210° | 11 kt | Missing | 19° | 66° | 17° | 62° | 88% | 1017 mb | 1,082 ft | |||
| 05-五月 | 15:00 | n/a | 230° | 13 kt | Missing | 22° | 71° | 16° | 60° | 69% | 1016 mb | 1,472 ft | |||
| 05-五月 | 14:00 | n/a | 240° | 7 kt | Missing | 25° | 77° | 15° | 59° | 54% | 1016 mb | 1,832 ft | |||
| 05-五月 | 13:00 | n/a | 240° | 5 kt | Missing | 25° | 77° | 15° | 59° | 54% | 1016 mb | 1,832 ft | |||
| 05-五月 | 12:00 | n/a | 310° | 1 kt | Missing | 25° | 77° | 16° | 60° | 57% | 1017 mb | 1,802 ft | |||
| 05-五月 | 11:00 | n/a | 20° | 5 kt | Missing | 24° | 75° | 16° | 60° | 61% | 1017 mb | 1,682 ft | |||
| 05-五月 | 10:00 | n/a | 10° | 5 kt | Missing | 23° | 73° | 16° | 60° | 65% | 1018 mb | 1,532 ft | |||
| 05-五月 | 09:00 | n/a | 30° | 5 kt | Missing | 23° | 73° | 16° | 60° | 65% | 1018 mb | 1,532 ft | |||
| 05-五月 | 08:00 | n/a | 10° | 4 kt | Missing | 21° | 69° | 15° | 59° | 69% | 1018 mb | 1,292 ft | |||
| 05-五月 | 07:00 | n/a | 50° | 2 kt | Missing | 18° | 64° | 14° | 57° | 77% | 1018 mb | 932 ft | |||
| 05-五月 | 06:00 | n/a | Calm | Missing | 17° | 62° | 13° | 55° | 77% | 1017 mb | 842 ft | ||||
| 05-五月 | 05:00 | n/a | 10° | 3 kt | Missing | 19° | 66° | 14° | 57° | 73% | 1017 mb | 1,082 ft | |||
| 05-五月 | 04:00 | n/a | 290° | 1 kt | Missing | 20° | 68° | 14° | 57° | 68% | 1017 mb | 1,202 ft | |||
| 05-五月 | 03:00 | n/a | 10° | 5 kt | Missing | 20° | 68° | 15° | 59° | 73% | 1016 mb | 1,232 ft | |||
| 05-五月 | 02:00 | n/a | 20° | 4 kt | Missing | 19° | 66° | 13° | 55° | 68% | 1016 mb | 1,112 ft | |||
| 05-五月 | 01:00 | n/a | 50° | 4 kt | Missing | 19° | 66° | 11° | 51° | 60% | 1016 mb | 1,112 ft | |||
| 05-五月 | 00:00 | n/a | 50° | 5 kt | Missing | 21° | 69° | 11° | 51° | 53% | 1016 mb | 1,352 ft | |||
| 04-五月 | 23:00 | n/a | 50° | 5 kt | Missing | 21° | 69° | 10° | 50° | 49% | 1016 mb | 1,352 ft | |||
| 04-五月 | 22:00 | n/a | Calm | Missing | 19° | 66° | 9° | 48° | 52% | 1017 mb | 1,082 ft | ||||
| 04-五月 | 21:00 | n/a | 100° | 1 kt | Missing | 20° | 68° | 10° | 50° | 53% | 1017 mb | 1,202 ft |
登录
| 您的浏览器不支持. 升级您的浏览器 |
